Brunswick Executive Airport (KBXM)
Brunswick, ME
Field Elevation: 72
Lat: 43°53.54N  Long: 69°56.33W
CTAF/Unicom Freq: 122.7250
   
    
Weather Advisories
2018-06-19   14:08 Z
Altimeter 29.72" Hg
Wind 360° @ 13 KT
Gusts 19 KT
Visibility 10 SM
Ceiling CLR
Temperature 22° C (72° F)
Dewpoint 11° C (52° F)
Relative Humidity 50%
Density Altitude 1,100 feet
Condensation Altitude 5,600 feet
Wind and Runways
Indicated Runway = 01
Headwind = 13 kt
Crosswind = 2 kt
History
 
 
 
More Info
All DigiWx sites map
 
NOAA Forecast
 
Airport IQ 5010
(OCNJ) Ocean City, NJ
(39N) Princeton, NJ
 
about DigiWx
 
FAA Disclaimer: The data displayed is for advisory purposes only and is not to be used for flight planning or operations. For official data, please call (not available) to hear the current automated AWOS voice message.
  METAR KBXM 191408Z AUTO 36013G19KT 10 SM CLR 22/11 A2972